createdAt,value
2018-11-21T00:00:22.260Z,-2.60
2018-11-21T00:03:08.884Z,-2.60
2018-11-21T00:05:55.517Z,-2.60
2018-11-21T00:08:42.216Z,-2.60
2018-11-21T00:11:29.068Z,-2.60
2018-11-21T00:14:18.706Z,-2.60
2018-11-21T00:17:05.426Z,-2.60
2018-11-21T00:19:52.231Z,-2.60
2018-11-21T00:22:38.893Z,-2.60
2018-11-21T00:25:25.522Z,-2.70
2018-11-21T00:28:12.233Z,-2.70
2018-11-21T00:31:04.007Z,-2.70
2018-11-21T00:33:50.644Z,-2.70
2018-11-21T00:36:37.417Z,-2.70
2018-11-21T00:39:24.069Z,-2.70
2018-11-21T00:42:12.968Z,-2.70
2018-11-21T00:44:59.653Z,-2.70
2018-11-21T00:47:46.342Z,-2.80
2018-11-21T00:50:33.023Z,-2.80
2018-11-21T00:53:22.732Z,-3.00
2018-11-21T00:56:09.367Z,-3.00
2018-11-21T00:58:36.468Z,-3.10
2018-11-21T01:01:23.210Z,-3.10
2018-11-21T01:04:09.882Z,-3.10
2018-11-21T01:06:56.582Z,-3.10
2018-11-21T01:09:43.311Z,-3.10
2018-11-21T01:12:29.962Z,-3.10
2018-11-21T01:15:16.621Z,-3.10
2018-11-21T01:18:03.434Z,-3.00
2018-11-21T01:20:52.416Z,-3.00
2018-11-21T01:23:39.185Z,-3.10
2018-11-21T01:26:23.473Z,-3.20
2018-11-21T01:29:03.794Z,-3.20
2018-11-21T01:31:43.276Z,-3.20
2018-11-21T01:34:27.301Z,-3.20
2018-11-21T01:39:54.783Z,-3.40
2018-11-21T01:42:37.098Z,-3.40
2018-11-21T01:45:16.824Z,-3.40
2018-11-21T01:47:56.296Z,-3.40
2018-11-21T01:50:41.715Z,-3.30
2018-11-21T01:53:21.634Z,-3.30
2018-11-21T01:56:01.244Z,-3.30
2018-11-21T01:58:40.933Z,-3.40
2018-11-21T02:01:20.274Z,-3.50
2018-11-21T02:04:00.525Z,-3.50
2018-11-21T02:06:40.150Z,-3.50
2018-11-21T02:09:19.772Z,-3.40
2018-11-21T02:11:59.299Z,-3.50
2018-11-21T02:14:28.317Z,-3.50
2018-11-21T02:17:14.933Z,-3.50
2018-11-21T02:20:01.735Z,-3.60
2018-11-21T02:22:48.487Z,-3.60
2018-11-21T02:25:35.159Z,-3.70
2018-11-21T02:28:21.858Z,-3.60
2018-11-21T02:31:08.615Z,-3.60
2018-11-21T02:33:55.443Z,-3.60
2018-11-21T02:36:41.994Z,-3.70
2018-11-21T02:39:28.612Z,-3.80
2018-11-21T02:42:19.382Z,-3.80
2018-11-21T02:45:05.150Z,-3.80
2018-11-21T02:47:51.804Z,-3.80
2018-11-21T02:50:40.055Z,-3.80
2018-11-21T02:53:28.025Z,-3.80
2018-11-21T02:56:14.727Z,-3.80
2018-11-21T02:59:01.393Z,-3.90
2018-11-21T03:01:28.489Z,-3.90
2018-11-21T03:03:55.566Z,-3.90
2018-11-21T03:06:44.230Z,-4.00
2018-11-21T03:09:30.816Z,-4.00
2018-11-21T03:12:17.494Z,-4.00
2018-11-21T03:15:04.615Z,-3.90
2018-11-21T03:21:41.027Z,-4.00
2018-11-21T03:24:27.733Z,-4.10
2018-11-21T03:27:14.461Z,-4.10
2018-11-21T03:30:01.095Z,-4.10
2018-11-21T03:32:47.748Z,-4.10
2018-11-21T03:35:34.504Z,-4.10
2018-11-21T03:38:21.164Z,-4.10
2018-11-21T03:43:41.314Z,-4.20
2018-11-21T03:46:30.473Z,-4.20
2018-11-21T03:49:19.197Z,-4.20
2018-11-21T03:52:05.809Z,-4.30
2018-11-21T03:54:52.445Z,-4.30
2018-11-21T03:57:39.277Z,-4.30
2018-11-21T04:00:25.881Z,-4.20
2018-11-21T04:03:12.536Z,-4.20
2018-11-21T04:05:59.203Z,-4.20
2018-11-21T04:08:45.932Z,-4.20
2018-11-21T04:11:32.615Z,-4.20
2018-11-21T04:14:19.301Z,-4.20
2018-11-21T04:20:18.669Z,-4.20
2018-11-21T04:23:05.314Z,-4.30
2018-11-21T04:25:54.453Z,-4.30
2018-11-21T04:28:41.098Z,-4.30
2018-11-21T04:31:08.165Z,-4.40
2018-11-21T04:33:57.705Z,-4.30
2018-11-21T04:36:44.344Z,-4.30
2018-11-21T04:39:30.982Z,-4.40
2018-11-21T04:42:17.649Z,-4.40
2018-11-21T04:45:05.118Z,-4.40
2018-11-21T04:47:53.670Z,-4.40
2018-11-21T04:50:40.403Z,-4.40
2018-11-21T04:53:28.093Z,-4.50
2018-11-21T04:56:14.112Z,-4.50
2018-11-21T04:59:00.733Z,-4.50
2018-11-21T05:01:47.367Z,-4.50
2018-11-21T05:07:40.339Z,-4.60
2018-11-21T05:10:27.052Z,-4.70
2018-11-21T05:13:13.715Z,-4.60
2018-11-21T05:16:00.332Z,-4.70
2018-11-21T05:18:47.006Z,-4.70
2018-11-21T05:21:35.816Z,-4.70
2018-11-21T05:24:02.925Z,-4.70
2018-11-21T05:26:53.008Z,-4.70
2018-11-21T05:29:18.716Z,-4.70
2018-11-21T05:31:45.788Z,-4.70
2018-11-21T05:34:32.681Z,-4.70
2018-11-21T05:37:19.304Z,-4.70
2018-11-21T05:40:06.780Z,-4.60
2018-11-21T05:42:53.419Z,-4.60
2018-11-21T05:45:40.064Z,-4.50
2018-11-21T05:48:29.716Z,-4.60
2018-11-21T05:51:16.403Z,-4.50
2018-11-21T05:54:03.037Z,-4.50
2018-11-21T05:56:49.634Z,-4.50
2018-11-21T05:59:38.562Z,-4.40
2018-11-21T06:02:25.190Z,-4.40
2018-11-21T06:05:12.346Z,-4.40
2018-11-21T06:08:01.856Z,-4.30
2018-11-21T06:13:35.337Z,-4.40
2018-11-21T06:16:21.987Z,-4.40
2018-11-21T06:19:08.686Z,-4.30
2018-11-21T06:21:55.341Z,-4.40
2018-11-21T06:24:41.973Z,-4.40
2018-11-21T06:27:31.576Z,-4.30
2018-11-21T06:30:18.308Z,-4.30
2018-11-21T06:33:05.057Z,-4.30
2018-11-21T06:35:51.714Z,-4.30
2018-11-21T06:38:40.416Z,-4.30
2018-11-21T06:41:25.035Z,-4.30
2018-11-21T06:44:11.639Z,-4.30
2018-11-21T06:46:58.394Z,-4.40
2018-11-21T06:49:44.973Z,-4.40
2018-11-21T06:52:31.626Z,-4.50
2018-11-21T06:55:18.518Z,-4.40
2018-11-21T06:58:05.459Z,-4.30
2018-11-21T07:00:32.577Z,-4.30
2018-11-21T07:03:19.172Z,-4.20
2018-11-21T07:06:05.948Z,-4.20
2018-11-21T07:08:52.562Z,-4.20
2018-11-21T07:11:39.349Z,-4.10
2018-11-21T07:14:28.854Z,-4.10
2018-11-21T07:17:17.890Z,-4.10
2018-11-21T07:20:05.971Z,-4.00
2018-11-21T07:23:13.817Z,-4.00
2018-11-21T07:26:00.603Z,-3.90
2018-11-21T07:28:47.217Z,-3.90
2018-11-21T07:31:34.100Z,-3.80
2018-11-21T07:34:25.837Z,-3.70
2018-11-21T07:37:12.476Z,-3.60
2018-11-21T07:39:59.160Z,-3.60
2018-11-21T07:42:45.832Z,-3.50
2018-11-21T07:45:32.500Z,-3.40
2018-11-21T07:51:12.587Z,-3.30
2018-11-21T07:53:39.867Z,-3.30
2018-11-21T07:56:46.083Z,-3.30
2018-11-21T07:59:34.873Z,-3.30
2018-11-21T08:02:30.084Z,-3.20
2018-11-21T08:05:20.995Z,-3.10
2018-11-21T08:08:27.272Z,-3.10
2018-11-21T08:11:33.485Z,-3.10
2018-11-21T08:14:39.736Z,-3.00
2018-11-21T08:17:45.930Z,-2.90
2018-11-21T08:20:52.150Z,-2.80
2018-11-21T08:23:58.381Z,-2.60
2018-11-21T08:27:04.574Z,-2.40
2018-11-21T08:29:51.403Z,-2.20
2018-11-21T08:32:38.071Z,-2.10
2018-11-21T08:35:24.681Z,-2.00
2018-11-21T08:38:11.628Z,-1.90
2018-11-21T08:40:58.359Z,-1.80
2018-11-21T08:43:45.523Z,-1.80
2018-11-21T08:46:32.142Z,-1.70
2018-11-21T08:49:18.824Z,-1.70
2018-11-21T08:52:05.572Z,-1.60
2018-11-21T08:54:59.443Z,-1.60
2018-11-21T08:57:46.158Z,-1.50
2018-11-21T09:00:34.183Z,-1.50
2018-11-21T09:03:19.803Z,-1.50
2018-11-21T09:06:06.424Z,-1.40
2018-11-21T09:08:53.165Z,-1.30
2018-11-21T09:11:39.885Z,-1.30
2018-11-21T09:14:26.514Z,-1.20
2018-11-21T09:17:13.288Z,-1.20
2018-11-21T09:20:00.233Z,-1.20
2018-11-21T09:22:46.971Z,-1.20
2018-11-21T09:25:33.591Z,-1.10
2018-11-21T09:28:20.236Z,-1.10
2018-11-21T09:31:26.433Z,-1.00
2018-11-21T09:34:13.069Z,-1.00
2018-11-21T09:36:59.822Z,-1.00
2018-11-21T09:39:46.509Z,-0.90
2018-11-21T09:42:33.231Z,-0.90
2018-11-21T09:45:20.938Z,-0.90
2018-11-21T09:48:07.711Z,-0.90
2018-11-21T09:50:54.351Z,-0.80
2018-11-21T09:54:03.470Z,-0.80
2018-11-21T09:56:50.103Z,-0.80
2018-11-21T09:59:36.732Z,-0.70
2018-11-21T10:03:02.458Z,-0.70
2018-11-21T10:05:50.523Z,-0.70
2018-11-21T10:08:56.778Z,-0.60
2018-11-21T10:11:43.464Z,-0.60
2018-11-21T10:14:30.097Z,-0.50
2018-11-21T10:17:16.757Z,-0.50
2018-11-21T10:20:03.502Z,-0.40
2018-11-21T10:23:09.793Z,-0.40
2018-11-21T10:25:58.421Z,-0.30
2018-11-21T10:28:45.903Z,-0.20
2018-11-21T10:31:32.535Z,-0.10
2018-11-21T10:34:19.199Z,-0.10
2018-11-21T10:37:05.840Z,-0.10
2018-11-21T10:39:52.498Z,-0.10
2018-11-21T10:42:39.094Z,-0.10
2018-11-21T10:48:33.886Z,-0.10
2018-11-21T10:51:23.398Z,0.00
2018-11-21T10:54:10.153Z,0.00
2018-11-21T10:56:56.788Z,0.10
2018-11-21T10:59:43.442Z,0.10
2018-11-21T11:02:49.678Z,0.10
2018-11-21T11:05:50.234Z,0.20
2018-11-21T11:08:56.557Z,0.20
2018-11-21T11:12:04.877Z,0.20
2018-11-21T11:15:11.033Z,0.20
2018-11-21T11:18:17.214Z,0.20
2018-11-21T11:21:25.457Z,0.20
2018-11-21T11:24:31.667Z,0.30
2018-11-21T11:27:37.888Z,0.30
2018-11-21T11:30:44.071Z,0.40
2018-11-21T11:33:50.286Z,0.30
2018-11-21T11:36:56.486Z,0.40
2018-11-21T11:39:58.751Z,0.30
2018-11-21T11:43:04.953Z,0.40
2018-11-21T11:46:11.132Z,0.40
2018-11-21T11:49:17.332Z,0.40
2018-11-21T11:52:23.833Z,0.40
2018-11-21T11:55:30.036Z,0.40
2018-11-21T11:58:26.247Z,0.40
2018-11-21T12:01:32.477Z,0.40
2018-11-21T12:04:34.602Z,0.50
2018-11-21T12:07:34.221Z,0.50
2018-11-21T12:10:33.659Z,0.50
2018-11-21T12:13:32.772Z,0.50
